sensor_id;sensor_type;location;lat;lon;timestamp;P1;durP1;ratioP1;P2;durP2;ratioP2
5454;SDS011;2750;49.050;9.250;2022-07-29T00:04:51;11.40;;;10.27;;
5454;SDS011;2750;49.050;9.250;2022-07-29T00:09:52;12.20;;;10.93;;
5454;SDS011;2750;49.050;9.250;2022-07-29T00:14:54;12.20;;;11.20;;
5454;SDS011;2750;49.050;9.250;2022-07-29T00:19:57;11.63;;;10.53;;
5454;SDS011;2750;49.050;9.250;2022-07-29T00:24:59;11.33;;;10.40;;
5454;SDS011;2750;49.050;9.250;2022-07-29T00:30:00;11.40;;;10.33;;
5454;SDS011;2750;49.050;9.250;2022-07-29T00:35:05;12.93;;;11.80;;
5454;SDS011;2750;49.050;9.250;2022-07-29T00:40:39;12.33;;;11.03;;
5454;SDS011;2750;49.050;9.250;2022-07-29T00:45:42;12.57;;;11.33;;
5454;SDS011;2750;49.050;9.250;2022-07-29T00:50:45;13.30;;;11.70;;
5454;SDS011;2750;49.050;9.250;2022-07-29T00:55:46;12.33;;;11.10;;
5454;SDS011;2750;49.050;9.250;2022-07-29T01:00:48;10.63;;;8.77;;
5454;SDS011;2750;49.050;9.250;2022-07-29T01:05:51;9.00;;;8.30;;
5454;SDS011;2750;49.050;9.250;2022-07-29T01:10:53;12.37;;;11.27;;
5454;SDS011;2750;49.050;9.250;2022-07-29T01:15:56;11.97;;;10.77;;
5454;SDS011;2750;49.050;9.250;2022-07-29T01:26:36;13.73;;;11.77;;
5454;SDS011;2750;49.050;9.250;2022-07-29T01:31:47;14.13;;;12.50;;
5454;SDS011;2750;49.050;9.250;2022-07-29T01:36:55;15.17;;;13.70;;
5454;SDS011;2750;49.050;9.250;2022-07-29T01:42:20;13.53;;;12.33;;
5454;SDS011;2750;49.050;9.250;2022-07-29T01:47:31;13.73;;;12.33;;
5454;SDS011;2750;49.050;9.250;2022-07-29T01:52:54;13.10;;;12.00;;
5454;SDS011;2750;49.050;9.250;2022-07-29T01:58:00;15.40;;;14.07;;
5454;SDS011;2750;49.050;9.250;2022-07-29T02:03:07;14.20;;;12.93;;
5454;SDS011;2750;49.050;9.250;2022-07-29T02:08:12;15.10;;;13.70;;
5454;SDS011;2750;49.050;9.250;2022-07-29T02:13:15;14.43;;;13.07;;
5454;SDS011;2750;49.050;9.250;2022-07-29T02:18:21;12.90;;;11.80;;
5454;SDS011;2750;49.050;9.250;2022-07-29T02:23:25;14.90;;;13.40;;
5454;SDS011;2750;49.050;9.250;2022-07-29T02:28:27;14.50;;;13.07;;
5454;SDS011;2750;49.050;9.250;2022-07-29T02:33:32;13.13;;;11.83;;
5454;SDS011;2750;49.050;9.250;2022-07-29T02:38:35;14.43;;;13.13;;
5454;SDS011;2750;49.050;9.250;2022-07-29T02:44:02;14.40;;;13.00;;
5454;SDS011;2750;49.050;9.250;2022-07-29T02:49:15;15.00;;;13.53;;
5454;SDS011;2750;49.050;9.250;2022-07-29T02:54:21;20.00;;;15.10;;
5454;SDS011;2750;49.050;9.250;2022-07-29T02:59:27;15.90;;;14.40;;
5454;SDS011;2750;49.050;9.250;2022-07-29T03:04:33;17.13;;;15.47;;
5454;SDS011;2750;49.050;9.250;2022-07-29T03:09:35;14.60;;;13.13;;
5454;SDS011;2750;49.050;9.250;2022-07-29T03:14:37;15.63;;;14.00;;
5454;SDS011;2750;49.050;9.250;2022-07-29T03:19:41;14.53;;;13.23;;
5454;SDS011;2750;49.050;9.250;2022-07-29T03:24:43;17.83;;;16.13;;
5454;SDS011;2750;49.050;9.250;2022-07-29T03:29:44;18.17;;;16.00;;
5454;SDS011;2750;49.050;9.250;2022-07-29T03:34:47;15.47;;;14.03;;
5454;SDS011;2750;49.050;9.250;2022-07-29T03:39:48;14.27;;;13.03;;
5454;SDS011;2750;49.050;9.250;2022-07-29T03:44:52;17.30;;;15.67;;
5454;SDS011;2750;49.050;9.250;2022-07-29T03:49:59;15.87;;;14.30;;
5454;SDS011;2750;49.050;9.250;2022-07-29T03:55:03;13.83;;;12.63;;
5454;SDS011;2750;49.050;9.250;2022-07-29T04:00:06;15.27;;;13.87;;
5454;SDS011;2750;49.050;9.250;2022-07-29T04:05:12;15.30;;;13.80;;
5454;SDS011;2750;49.050;9.250;2022-07-29T04:10:15;17.17;;;15.57;;
5454;SDS011;2750;49.050;9.250;2022-07-29T04:15:18;15.90;;;14.40;;
5454;SDS011;2750;49.050;9.250;2022-07-29T04:20:21;13.83;;;12.43;;
5454;SDS011;2750;49.050;9.250;2022-07-29T04:25:23;13.03;;;11.80;;
5454;SDS011;2750;49.050;9.250;2022-07-29T04:30:24;11.50;;;10.37;;
5454;SDS011;2750;49.050;9.250;2022-07-29T04:35:27;10.80;;;9.83;;
5454;SDS011;2750;49.050;9.250;2022-07-29T04:40:29;11.10;;;10.00;;
5454;SDS011;2750;49.050;9.250;2022-07-29T04:45:32;10.83;;;9.87;;
5454;SDS011;2750;49.050;9.250;2022-07-29T04:50:37;10.43;;;9.43;;
5454;SDS011;2750;49.050;9.250;2022-07-29T04:55:39;10.77;;;9.70;;
5454;SDS011;2750;49.050;9.250;2022-07-29T05:00:41;11.63;;;9.83;;
5454;SDS011;2750;49.050;9.250;2022-07-29T05:05:44;12.30;;;11.10;;
5454;SDS011;2750;49.050;9.250;2022-07-29T05:10:45;12.87;;;11.47;;
5454;SDS011;2750;49.050;9.250;2022-07-29T05:15:47;12.13;;;10.93;;
5454;SDS011;2750;49.050;9.250;2022-07-29T05:20:50;10.60;;;9.63;;
5454;SDS011;2750;49.050;9.250;2022-07-29T05:25:51;11.83;;;10.63;;
5454;SDS011;2750;49.050;9.250;2022-07-29T05:30:53;12.33;;;11.13;;
5454;SDS011;2750;49.050;9.250;2022-07-29T05:35:56;11.53;;;10.50;;
5454;SDS011;2750;49.050;9.250;2022-07-29T05:40:57;10.03;;;9.23;;
5454;SDS011;2750;49.050;9.250;2022-07-29T05:45:59;10.23;;;9.33;;
5454;SDS011;2750;49.050;9.250;2022-07-29T05:51:02;9.02;;;8.23;;
5454;SDS011;2750;49.050;9.250;2022-07-29T05:56:05;8.57;;;7.43;;
5454;SDS011;2750;49.050;9.250;2022-07-29T06:01:07;9.90;;;8.82;;
5454;SDS011;2750;49.050;9.250;2022-07-29T06:06:10;9.65;;;8.75;;
5454;SDS011;2750;49.050;9.250;2022-07-29T06:11:12;8.75;;;7.95;;
5454;SDS011;2750;49.050;9.250;2022-07-29T06:16:13;9.00;;;8.20;;
5454;SDS011;2750;49.050;9.250;2022-07-29T06:21:16;7.07;;;6.55;;
5454;SDS011;2750;49.050;9.250;2022-07-29T06:26:17;7.22;;;6.63;;
5454;SDS011;2750;49.050;9.250;2022-07-29T06:31:19;5.00;;;4.57;;
5454;SDS011;2750;49.050;9.250;2022-07-29T06:36:22;5.28;;;4.88;;
5454;SDS011;2750;49.050;9.250;2022-07-29T06:41:23;5.43;;;4.85;;
5454;SDS011;2750;49.050;9.250;2022-07-29T06:46:25;6.78;;;5.28;;
5454;SDS011;2750;49.050;9.250;2022-07-29T06:51:29;5.70;;;5.10;;
5454;SDS011;2750;49.050;9.250;2022-07-29T06:56:30;5.07;;;4.68;;
5454;SDS011;2750;49.050;9.250;2022-07-29T07:01:32;5.10;;;4.70;;
5454;SDS011;2750;49.050;9.250;2022-07-29T07:06:35;4.68;;;4.28;;
5454;SDS011;2750;49.050;9.250;2022-07-29T07:11:37;5.32;;;4.45;;
5454;SDS011;2750;49.050;9.250;2022-07-29T07:16:38;5.43;;;5.03;;
5454;SDS011;2750;49.050;9.250;2022-07-29T07:21:41;4.35;;;4.05;;
5454;SDS011;2750;49.050;9.250;2022-07-29T07:26:42;4.57;;;4.18;;
5454;SDS011;2750;49.050;9.250;2022-07-29T07:31:44;4.35;;;3.95;;
5454;SDS011;2750;49.050;9.250;2022-07-29T07:36:47;4.38;;;3.97;;
5454;SDS011;2750;49.050;9.250;2022-07-29T07:41:48;4.60;;;4.30;;
5454;SDS011;2750;49.050;9.250;2022-07-29T07:46:50;4.50;;;4.10;;
5454;SDS011;2750;49.050;9.250;2022-07-29T07:51:52;4.65;;;4.25;;
5454;SDS011;2750;49.050;9.250;2022-07-29T07:56:54;4.55;;;4.25;;
5454;SDS011;2750;49.050;9.250;2022-07-29T08:01:55;4.53;;;4.20;;
5454;SDS011;2750;49.050;9.250;2022-07-29T08:06:58;6.30;;;4.60;;
5454;SDS011;2750;49.050;9.250;2022-07-29T08:12:01;4.50;;;4.15;;
5454;SDS011;2750;49.050;9.250;2022-07-29T08:17:05;5.18;;;4.65;;
5454;SDS011;2750;49.050;9.250;2022-07-29T08:22:08;5.10;;;4.60;;
5454;SDS011;2750;49.050;9.250;2022-07-29T08:27:10;5.10;;;4.60;;
5454;SDS011;2750;49.050;9.250;2022-07-29T08:32:11;6.38;;;4.28;;
5454;SDS011;2750;49.050;9.250;2022-07-29T08:37:14;4.90;;;4.50;;
5454;SDS011;2750;49.050;9.250;2022-07-29T08:42:16;5.35;;;4.95;;
5454;SDS011;2750;49.050;9.250;2022-07-29T08:47:17;5.93;;;5.35;;
5454;SDS011;2750;49.050;9.250;2022-07-29T08:52:20;5.85;;;5.43;;
5454;SDS011;2750;49.050;9.250;2022-07-29T08:57:24;5.57;;;5.15;;
5454;SDS011;2750;49.050;9.250;2022-07-29T09:02:28;6.82;;;6.32;;
5454;SDS011;2750;49.050;9.250;2022-07-29T09:07:35;5.93;;;5.32;;
5454;SDS011;2750;49.050;9.250;2022-07-29T09:12:36;6.80;;;6.13;;
5454;SDS011;2750;49.050;9.250;2022-07-29T09:17:39;7.00;;;6.40;;
5454;SDS011;2750;49.050;9.250;2022-07-29T09:22:42;7.78;;;6.38;;
5454;SDS011;2750;49.050;9.250;2022-07-29T09:27:49;7.43;;;5.85;;
5454;SDS011;2750;49.050;9.250;2022-07-29T09:32:54;8.82;;;6.35;;
5454;SDS011;2750;49.050;9.250;2022-07-29T09:37:58;7.68;;;6.28;;
5454;SDS011;2750;49.050;9.250;2022-07-29T09:43:11;6.70;;;6.10;;
5454;SDS011;2750;49.050;9.250;2022-07-29T09:48:14;9.45;;;7.32;;
5454;SDS011;2750;49.050;9.250;2022-07-29T09:53:31;7.95;;;6.25;;
5454;SDS011;2750;49.050;9.250;2022-07-29T09:58:34;7.18;;;6.50;;
5454;SDS011;2750;49.050;9.250;2022-07-29T10:03:49;7.30;;;6.70;;
5454;SDS011;2750;49.050;9.250;2022-07-29T10:08:53;6.97;;;6.38;;
5454;SDS011;2750;49.050;9.250;2022-07-29T10:13:54;7.95;;;7.25;;
5454;SDS011;2750;49.050;9.250;2022-07-29T10:18:56;8.82;;;6.78;;
5454;SDS011;2750;49.050;9.250;2022-07-29T10:23:59;7.60;;;7.00;;
5454;SDS011;2750;49.050;9.250;2022-07-29T10:29:01;7.03;;;6.20;;
5454;SDS011;2750;49.050;9.250;2022-07-29T10:34:04;7.45;;;6.70;;
5454;SDS011;2750;49.050;9.250;2022-07-29T10:39:17;7.68;;;6.93;;
5454;SDS011;2750;49.050;9.250;2022-07-29T10:44:27;7.53;;;6.80;;
5454;SDS011;2750;49.050;9.250;2022-07-29T10:49:29;7.45;;;6.50;;
5454;SDS011;2750;49.050;9.250;2022-07-29T10:54:45;6.72;;;6.13;;
5454;SDS011;2750;49.050;9.250;2022-07-29T10:59:50;6.38;;;5.82;;
5454;SDS011;2750;49.050;9.250;2022-07-29T11:05:13;7.07;;;6.35;;
5454;SDS011;2750;49.050;9.250;2022-07-29T11:10:25;6.75;;;6.00;;
5454;SDS011;2750;49.050;9.250;2022-07-29T11:15:26;6.88;;;6.18;;
5454;SDS011;2750;49.050;9.250;2022-07-29T11:20:32;7.82;;;5.95;;
5454;SDS011;2750;49.050;9.250;2022-07-29T11:25:39;6.60;;;6.00;;
5454;SDS011;2750;49.050;9.250;2022-07-29T11:30:47;7.80;;;6.18;;
5454;SDS011;2750;49.050;9.250;2022-07-29T11:41:24;9.85;;;5.80;;
5454;SDS011;2750;49.050;9.250;2022-07-29T11:46:45;6.78;;;5.85;;
5454;SDS011;2750;49.050;9.250;2022-07-29T11:51:51;6.43;;;5.78;;
5454;SDS011;2750;49.050;9.250;2022-07-29T11:56:55;7.07;;;5.80;;
5454;SDS011;2750;49.050;9.250;2022-07-29T12:01:58;6.88;;;5.32;;
5454;SDS011;2750;49.050;9.250;2022-07-29T12:07:00;6.00;;;5.40;;
5454;SDS011;2750;49.050;9.250;2022-07-29T12:12:03;7.90;;;5.75;;
5454;SDS011;2750;49.050;9.250;2022-07-29T12:17:05;5.72;;;5.13;;
5454;SDS011;2750;49.050;9.250;2022-07-29T12:22:07;5.72;;;5.18;;
5454;SDS011;2750;49.050;9.250;2022-07-29T12:27:10;5.45;;;4.97;;
5454;SDS011;2750;49.050;9.250;2022-07-29T12:32:12;5.85;;;5.28;;
5454;SDS011;2750;49.050;9.250;2022-07-29T12:37:14;4.70;;;4.30;;
5454;SDS011;2750;49.050;9.250;2022-07-29T12:42:17;7.07;;;5.07;;
5454;SDS011;2750;49.050;9.250;2022-07-29T12:47:18;5.40;;;4.90;;
5454;SDS011;2750;49.050;9.250;2022-07-29T12:52:27;5.13;;;4.57;;
5454;SDS011;2750;49.050;9.250;2022-07-29T12:57:31;6.25;;;4.40;;
5454;SDS011;2750;49.050;9.250;2022-07-29T13:02:32;6.07;;;5.47;;
5454;SDS011;2750;49.050;9.250;2022-07-29T13:07:34;8.40;;;5.88;;
5454;SDS011;2750;49.050;9.250;2022-07-29T13:12:39;6.53;;;5.93;;
5454;SDS011;2750;49.050;9.250;2022-07-29T13:18:00;5.45;;;4.90;;
5454;SDS011;2750;49.050;9.250;2022-07-29T13:23:02;8.50;;;4.93;;
5454;SDS011;2750;49.050;9.250;2022-07-29T13:28:05;10.32;;;5.40;;
5454;SDS011;2750;49.050;9.250;2022-07-29T13:33:06;6.15;;;5.65;;
5454;SDS011;2750;49.050;9.250;2022-07-29T13:38:08;6.40;;;5.13;;
5454;SDS011;2750;49.050;9.250;2022-07-29T13:43:11;5.80;;;5.18;;
5454;SDS011;2750;49.050;9.250;2022-07-29T13:48:13;6.25;;;5.07;;
5454;SDS011;2750;49.050;9.250;2022-07-29T13:53:14;6.20;;;5.30;;
5454;SDS011;2750;49.050;9.250;2022-07-29T13:58:17;5.72;;;5.10;;
5454;SDS011;2750;49.050;9.250;2022-07-29T14:03:19;4.97;;;4.57;;
5454;SDS011;2750;49.050;9.250;2022-07-29T14:08:20;5.63;;;4.72;;
5454;SDS011;2750;49.050;9.250;2022-07-29T14:13:23;4.88;;;4.38;;
5454;SDS011;2750;49.050;9.250;2022-07-29T14:18:25;5.18;;;4.70;;
5454;SDS011;2750;49.050;9.250;2022-07-29T14:23:26;6.32;;;5.68;;
5454;SDS011;2750;49.050;9.250;2022-07-29T14:28:29;7.53;;;4.70;;
5454;SDS011;2750;49.050;9.250;2022-07-29T14:33:31;4.97;;;4.50;;
5454;SDS011;2750;49.050;9.250;2022-07-29T14:38:32;4.93;;;4.53;;
5454;SDS011;2750;49.050;9.250;2022-07-29T14:43:35;5.53;;;5.03;;
5454;SDS011;2750;49.050;9.250;2022-07-29T14:48:37;6.13;;;4.78;;
5454;SDS011;2750;49.050;9.250;2022-07-29T14:53:38;5.45;;;5.00;;
5454;SDS011;2750;49.050;9.250;2022-07-29T14:58:41;4.85;;;4.45;;
5454;SDS011;2750;49.050;9.250;2022-07-29T15:03:42;5.90;;;5.40;;
5454;SDS011;2750;49.050;9.250;2022-07-29T15:08:44;4.82;;;4.40;;
5454;SDS011;2750;49.050;9.250;2022-07-29T15:13:47;7.78;;;3.80;;
5454;SDS011;2750;49.050;9.250;2022-07-29T15:18:48;5.82;;;4.07;;
5454;SDS011;2750;49.050;9.250;2022-07-29T15:23:50;5.85;;;3.95;;
5454;SDS011;2750;49.050;9.250;2022-07-29T15:28:53;5.50;;;3.83;;
5454;SDS011;2750;49.050;9.250;2022-07-29T15:33:55;5.05;;;3.25;;
5454;SDS011;2750;49.050;9.250;2022-07-29T15:38:57;4.88;;;2.95;;
5454;SDS011;2750;49.050;9.250;2022-07-29T15:43:59;3.17;;;2.80;;
5454;SDS011;2750;49.050;9.250;2022-07-29T15:49:01;5.32;;;3.00;;
5454;SDS011;2750;49.050;9.250;2022-07-29T15:54:04;4.05;;;3.03;;
5454;SDS011;2750;49.050;9.250;2022-07-29T15:59:07;8.27;;;3.03;;
5454;SDS011;2750;49.050;9.250;2022-07-29T16:04:09;6.00;;;3.15;;
5454;SDS011;2750;49.050;9.250;2022-07-29T16:09:10;3.72;;;2.92;;
5454;SDS011;2750;49.050;9.250;2022-07-29T16:14:13;3.45;;;2.55;;
5454;SDS011;2750;49.050;9.250;2022-07-29T16:19:15;4.57;;;2.58;;
5454;SDS011;2750;49.050;9.250;2022-07-29T16:24:16;6.85;;;2.60;;
5454;SDS011;2750;49.050;9.250;2022-07-29T16:29:19;4.63;;;3.10;;
5454;SDS011;2750;49.050;9.250;2022-07-29T16:34:21;4.82;;;2.78;;
5454;SDS011;2750;49.050;9.250;2022-07-29T16:39:22;4.05;;;3.17;;
5454;SDS011;2750;49.050;9.250;2022-07-29T16:44:26;3.05;;;2.47;;
5454;SDS011;2750;49.050;9.250;2022-07-29T16:49:27;4.90;;;2.65;;
5454;SDS011;2750;49.050;9.250;2022-07-29T16:54:30;4.10;;;3.08;;
5454;SDS011;2750;49.050;9.250;2022-07-29T16:59:33;3.63;;;2.70;;
5454;SDS011;2750;49.050;9.250;2022-07-29T17:04:35;3.40;;;2.72;;
5454;SDS011;2750;49.050;9.250;2022-07-29T17:09:36;3.78;;;2.35;;
5454;SDS011;2750;49.050;9.250;2022-07-29T17:14:39;2.85;;;2.65;;
5454;SDS011;2750;49.050;9.250;2022-07-29T17:19:41;4.85;;;3.05;;
5454;SDS011;2750;49.050;9.250;2022-07-29T17:24:42;3.08;;;2.63;;
5454;SDS011;2750;49.050;9.250;2022-07-29T17:29:45;2.80;;;2.47;;
5454;SDS011;2750;49.050;9.250;2022-07-29T17:34:47;4.07;;;2.90;;
5454;SDS011;2750;49.050;9.250;2022-07-29T17:39:48;4.53;;;2.45;;
5454;SDS011;2750;49.050;9.250;2022-07-29T17:44:51;2.50;;;2.30;;
5454;SDS011;2750;49.050;9.250;2022-07-29T17:49:53;3.58;;;2.50;;
5454;SDS011;2750;49.050;9.250;2022-07-29T17:54:54;6.05;;;2.70;;
5454;SDS011;2750;49.050;9.250;2022-07-29T17:59:57;3.88;;;2.53;;
5454;SDS011;2750;49.050;9.250;2022-07-29T18:04:58;2.40;;;2.20;;
5454;SDS011;2750;49.050;9.250;2022-07-29T18:10:00;4.15;;;2.65;;
5454;SDS011;2750;49.050;9.250;2022-07-29T18:15:03;5.30;;;2.45;;
5454;SDS011;2750;49.050;9.250;2022-07-29T18:20:06;3.38;;;2.38;;
5454;SDS011;2750;49.050;9.250;2022-07-29T18:25:08;4.28;;;2.97;;
5454;SDS011;2750;49.050;9.250;2022-07-29T18:30:12;8.05;;;3.10;;
5454;SDS011;2750;49.050;9.250;2022-07-29T18:35:15;4.80;;;4.30;;
5454;SDS011;2750;49.050;9.250;2022-07-29T18:40:16;4.55;;;4.10;;
5454;SDS011;2750;49.050;9.250;2022-07-29T18:45:21;5.45;;;3.90;;
5454;SDS011;2750;49.050;9.250;2022-07-29T18:50:23;6.05;;;4.40;;
5454;SDS011;2750;49.050;9.250;2022-07-29T18:55:24;5.18;;;4.68;;
5454;SDS011;2750;49.050;9.250;2022-07-29T19:00:27;4.32;;;3.90;;
5454;SDS011;2750;49.050;9.250;2022-07-29T19:05:29;5.63;;;5.13;;
5454;SDS011;2750;49.050;9.250;2022-07-29T19:10:31;4.63;;;4.22;;
5454;SDS011;2750;49.050;9.250;2022-07-29T19:15:33;5.27;;;4.73;;
5454;SDS011;2750;49.050;9.250;2022-07-29T19:20:35;6.63;;;4.83;;
5454;SDS011;2750;49.050;9.250;2022-07-29T19:25:37;6.10;;;4.30;;
5454;SDS011;2750;49.050;9.250;2022-07-29T19:30:40;4.27;;;3.93;;
5454;SDS011;2750;49.050;9.250;2022-07-29T19:35:41;4.57;;;4.13;;
5454;SDS011;2750;49.050;9.250;2022-07-29T19:40:43;4.33;;;3.93;;
5454;SDS011;2750;49.050;9.250;2022-07-29T19:45:46;4.80;;;4.40;;
5454;SDS011;2750;49.050;9.250;2022-07-29T19:50:47;5.10;;;4.07;;
5454;SDS011;2750;49.050;9.250;2022-07-29T19:55:49;4.20;;;3.90;;
5454;SDS011;2750;49.050;9.250;2022-07-29T20:00:52;5.37;;;4.87;;
5454;SDS011;2750;49.050;9.250;2022-07-29T20:05:53;4.90;;;4.40;;
5454;SDS011;2750;49.050;9.250;2022-07-29T20:10:55;4.97;;;4.60;;
5454;SDS011;2750;49.050;9.250;2022-07-29T20:15:57;5.47;;;4.33;;
5454;SDS011;2750;49.050;9.250;2022-07-29T20:20:59;4.97;;;4.40;;
5454;SDS011;2750;49.050;9.250;2022-07-29T20:26:02;5.97;;;4.67;;
5454;SDS011;2750;49.050;9.250;2022-07-29T20:31:05;4.53;;;4.13;;
5454;SDS011;2750;49.050;9.250;2022-07-29T20:36:07;5.53;;;4.63;;
5454;SDS011;2750;49.050;9.250;2022-07-29T20:41:09;4.30;;;3.87;;
5454;SDS011;2750;49.050;9.250;2022-07-29T20:46:11;4.67;;;4.13;;
5454;SDS011;2750;49.050;9.250;2022-07-29T20:51:13;4.87;;;4.40;;
5454;SDS011;2750;49.050;9.250;2022-07-29T20:56:14;4.83;;;4.20;;
5454;SDS011;2750;49.050;9.250;2022-07-29T21:01:17;4.37;;;4.03;;
5454;SDS011;2750;49.050;9.250;2022-07-29T21:06:19;5.07;;;4.43;;
5454;SDS011;2750;49.050;9.250;2022-07-29T21:11:21;4.57;;;3.90;;
5454;SDS011;2750;49.050;9.250;2022-07-29T21:16:23;4.93;;;4.53;;
5454;SDS011;2750;49.050;9.250;2022-07-29T21:21:27;5.00;;;4.43;;
5454;SDS011;2750;49.050;9.250;2022-07-29T21:26:29;4.80;;;4.40;;
5454;SDS011;2750;49.050;9.250;2022-07-29T21:31:31;5.10;;;4.73;;
5454;SDS011;2750;49.050;9.250;2022-07-29T21:36:33;5.67;;;4.43;;
5454;SDS011;2750;49.050;9.250;2022-07-29T21:41:34;5.13;;;4.73;;
5454;SDS011;2750;49.050;9.250;2022-07-29T21:46:37;5.83;;;5.23;;
5454;SDS011;2750;49.050;9.250;2022-07-29T21:51:39;4.90;;;4.40;;
5454;SDS011;2750;49.050;9.250;2022-07-29T21:56:40;5.10;;;4.70;;
5454;SDS011;2750;49.050;9.250;2022-07-29T22:01:43;5.50;;;5.10;;
5454;SDS011;2750;49.050;9.250;2022-07-29T22:06:44;5.03;;;4.43;;
5454;SDS011;2750;49.050;9.250;2022-07-29T22:11:46;4.87;;;4.27;;
5454;SDS011;2750;49.050;9.250;2022-07-29T22:16:49;6.17;;;5.63;;
5454;SDS011;2750;49.050;9.250;2022-07-29T22:21:50;5.23;;;4.83;;
5454;SDS011;2750;49.050;9.250;2022-07-29T22:26:52;5.97;;;4.97;;
5454;SDS011;2750;49.050;9.250;2022-07-29T22:31:54;5.53;;;4.90;;
5454;SDS011;2750;49.050;9.250;2022-07-29T22:36:56;4.83;;;4.33;;
5454;SDS011;2750;49.050;9.250;2022-07-29T22:41:58;4.93;;;4.53;;
5454;SDS011;2750;49.050;9.250;2022-07-29T22:47:01;4.67;;;4.27;;
5454;SDS011;2750;49.050;9.250;2022-07-29T22:52:03;5.00;;;4.60;;
5454;SDS011;2750;49.050;9.250;2022-07-29T22:57:05;5.80;;;4.47;;
5454;SDS011;2750;49.050;9.250;2022-07-29T23:02:09;5.30;;;4.80;;
5454;SDS011;2750;49.050;9.250;2022-07-29T23:07:11;5.43;;;4.60;;
5454;SDS011;2750;49.050;9.250;2022-07-29T23:12:12;4.97;;;4.47;;
5454;SDS011;2750;49.050;9.250;2022-07-29T23:17:15;5.57;;;4.87;;
5454;SDS011;2750;49.050;9.250;2022-07-29T23:22:17;5.40;;;4.90;;
5454;SDS011;2750;49.050;9.250;2022-07-29T23:27:18;5.17;;;4.60;;
5454;SDS011;2750;49.050;9.250;2022-07-29T23:32:21;5.93;;;4.50;;
5454;SDS011;2750;49.050;9.250;2022-07-29T23:37:22;5.03;;;4.70;;
5454;SDS011;2750;49.050;9.250;2022-07-29T23:42:24;5.63;;;5.10;;
5454;SDS011;2750;49.050;9.250;2022-07-29T23:47:27;6.53;;;4.93;;
5454;SDS011;2750;49.050;9.250;2022-07-29T23:52:28;5.90;;;5.30;;
5454;SDS011;2750;49.050;9.250;2022-07-29T23:57:30;4.87;;;4.47;;
